Time;durP1;ratioP1;P1;durP2;ratioP2;P2;SDS_P1;SDS_P2;PMS_P1;PMS_P2;Temp;Humidity;BMP_temperature;BMP_pressure;BME280_temperature;BME280_humidity;BME280_pressure;Samples;Min_cycle;Max_cycle;Signal;HPM_P1;HPM_P2
2021/10/29 00:01:38;;;;;;;48.63;20.57;;;9.30;82.80;;;;;;5048599;28;20179;-75
2021/10/29 00:04:04;;;;;;;43.30;19.90;;;9.30;81.60;;;;;;5033382;28;20195;-75
2021/10/29 00:06:29;;;;;;;42.83;22.97;;;9.30;82.50;;;;;;5032764;28;20179;-75
2021/10/29 00:08:55;;;;;;;41.03;20.93;;;9.30;82.10;;;;;;5032807;28;20191;-75
2021/10/29 00:11:21;;;;;;;51.90;20.40;;;9.30;82.60;;;;;;5032229;28;20171;-75
2021/10/29 00:13:47;;;;;;;48.10;21.47;;;9.30;82.70;;;;;;5024025;28;20871;-75
2021/10/29 00:16:12;;;;;;;37.57;19.17;;;9.40;81.50;;;;;;5030796;28;20183;-75
2021/10/29 00:18:38;;;;;;;43.87;19.47;;;9.30;82.10;;;;;;5030319;28;20262;-75
2021/10/29 00:21:03;;;;;;;37.87;19.90;;;9.30;82.40;;;;;;5032136;28;20176;-75
2021/10/29 00:23:31;;;;;;;40.80;19.97;;;9.30;83.00;;;;;;5031490;28;20541;-75
2021/10/29 00:25:58;;;;;;;43.90;22.53;;;9.30;80.90;;;;;;5024724;28;20648;-75
2021/10/29 00:28:23;;;;;;;40.63;20.57;;;9.30;82.30;;;;;;5012133;28;20419;-75
2021/10/29 00:30:49;;;;;;;38.97;20.13;;;9.30;82.80;;;;;;5026110;28;20457;-77
2021/10/29 00:33:16;;;;;;;41.60;20.10;;;9.30;82.00;;;;;;5030811;28;20614;-76
2021/10/29 00:35:42;;;;;;;45.33;20.07;;;9.30;83.10;;;;;;5031939;28;20160;-76
2021/10/29 00:38:08;;;;;;;39.30;20.53;;;9.30;83.00;;;;;;5031817;28;20824;-77
2021/10/29 00:40:35;;;;;;;40.90;18.70;;;9.30;82.90;;;;;;5031662;28;20423;-76
2021/10/29 00:43:01;;;;;;;37.03;19.97;;;9.30;83.60;;;;;;5031724;28;20254;-76
2021/10/29 00:45:26;;;;;;;40.27;20.00;;;9.20;85.30;;;;;;5031550;28;20510;-77
2021/10/29 00:47:53;;;;;;;31.50;17.93;;;9.30;84.70;;;;;;5031036;28;20195;-76
2021/10/29 00:50:19;;;;;;;33.73;17.40;;;9.20;84.60;;;;;;5031541;28;20667;-76
2021/10/29 00:52:45;;;;;;;40.43;19.63;;;9.30;83.70;;;;;;5031445;28;20460;-76
2021/10/29 00:55:11;;;;;;;43.80;20.30;;;9.30;83.30;;;;;;5031642;28;20411;-77
2021/10/29 00:57:38;;;;;;;36.40;18.10;;;9.40;81.20;;;;;;5032172;28;20526;-77
2021/10/29 01:00:04;;;;;;;40.13;20.20;;;9.40;81.80;;;;;;5011985;28;20435;-75
2021/10/29 01:02:30;;;;;;;38.03;19.03;;;9.40;81.80;;;;;;5025950;28;20414;-76
2021/10/29 01:04:56;;;;;;;34.33;18.47;;;9.40;81.90;;;;;;5031539;28;20903;-77
2021/10/29 01:07:22;;;;;;;44.33;19.90;;;9.40;81.30;;;;;;5031312;28;20538;-77
2021/10/29 01:09:48;;;;;;;35.97;18.57;;;9.40;80.90;;;;;;5046345;28;20435;-77
2021/10/29 01:12:14;;;;;;;35.87;18.10;;;9.40;81.80;;;;;;5031110;28;20173;-77
2021/10/29 01:14:39;;;;;;;41.50;18.60;;;9.40;81.80;;;;;;5031445;28;20280;-77
2021/10/29 01:17:05;;;;;;;37.63;18.87;;;9.40;81.70;;;;;;5030791;28;20426;-77
2021/10/29 01:19:32;;;;;;;36.50;18.50;;;9.30;82.30;;;;;;5031513;28;20241;-76
2021/10/29 01:21:58;;;;;;;41.63;21.00;;;9.30;82.70;;;;;;5031170;28;20545;-75
2021/10/29 01:24:24;;;;;;;41.37;20.03;;;9.30;82.20;;;;;;5031275;28;20414;-75
2021/10/29 01:26:49;;;;;;;33.37;17.33;;;9.20;83.50;;;;;;5041805;28;20180;-75
2021/10/29 01:29:15;;;;;;;40.17;20.17;;;9.20;84.00;;;;;;5031065;28;20271;-75
2021/10/29 01:31:41;;;;;;;36.10;17.93;;;9.30;84.10;;;;;;5030579;28;20554;-75
2021/10/29 01:34:06;;;;;;;40.17;18.10;;;9.30;82.80;;;;;;5030695;28;20469;-75
2021/10/29 01:36:32;;;;;;;34.27;17.60;;;9.20;83.60;;;;;;5030863;28;20680;-75
2021/10/29 01:38:57;;;;;;;35.70;17.90;;;9.30;83.90;;;;;;5031270;28;20192;-76
2021/10/29 01:41:23;;;;;;;39.33;18.60;;;9.30;84.20;;;;;;5031400;28;20261;-75
2021/10/29 01:43:49;;;;;;;32.80;17.83;;;9.50;79.80;;;;;;5031251;28;20177;-76
2021/10/29 01:46:16;;;;;;;35.60;17.70;;;9.40;80.50;;;;;;5032468;28;20188;-76
2021/10/29 01:48:50;;;;;;;37.53;18.00;;;9.40;80.90;;;;;;5034911;28;20473;-76
2021/10/29 01:51:19;;;;;;;45.77;17.20;;;9.40;79.20;;;;;;5034724;28;20428;-76
2021/10/29 01:53:45;;;;;;;34.03;16.30;;;9.40;79.90;;;;;;5036268;28;20454;-76
2021/10/29 01:56:11;;;;;;;41.53;19.30;;;9.50;77.90;;;;;;5040405;28;20476;-76
2021/10/29 01:58:37;;;;;;;37.20;17.63;;;9.40;78.10;;;;;;5034436;28;20423;-76
2021/10/29 02:01:05;;;;;;;35.47;16.30;;;9.40;77.80;;;;;;5034925;28;20914;-75
2021/10/29 02:03:30;;;;;;;30.90;14.47;;;9.40;78.40;;;;;;5034925;28;20430;-75
2021/10/29 02:05:56;;;;;;;33.00;16.03;;;9.40;78.30;;;;;;5034835;28;20422;-76
2021/10/29 02:08:24;;;;;;;33.73;15.63;;;9.40;77.30;;;;;;5034221;28;20234;-75
2021/10/29 02:10:50;;;;;;;34.87;16.77;;;9.40;77.40;;;;;;5036814;28;20200;-76
2021/10/29 02:13:17;;;;;;;33.90;16.33;;;9.30;77.70;;;;;;5031405;28;20464;-76
2021/10/29 02:15:43;;;;;;;26.30;15.67;;;9.30;80.10;;;;;;5015647;28;20419;-76
2021/10/29 02:18:08;;;;;;;37.47;17.83;;;9.30;78.10;;;;;;5027266;28;20459;-77
2021/10/29 02:20:34;;;;;;;34.03;17.30;;;9.30;77.30;;;;;;5034857;28;20235;-77
2021/10/29 02:22:59;;;;;;;34.47;16.03;;;9.30;78.60;;;;;;5034042;28;20183;-76
2021/10/29 02:25:25;;;;;;;37.43;17.37;;;9.30;76.70;;;;;;5035525;28;20276;-76
2021/10/29 02:27:50;;;;;;;31.83;16.20;;;9.30;77.40;;;;;;5034633;28;20633;-75
2021/10/29 02:30:16;;;;;;;34.63;16.97;;;9.30;77.60;;;;;;5055550;28;20734;-75
2021/10/29 02:32:42;;;;;;;33.33;16.33;;;9.30;77.00;;;;;;5034205;28;20208;-75
2021/10/29 02:35:08;;;;;;;33.87;17.27;;;9.30;76.50;;;;;;5035052;28;20179;-75
2021/10/29 02:37:34;;;;;;;32.27;14.30;;;9.30;75.90;;;;;;5037376;28;20441;-76
2021/10/29 02:39:59;;;;;;;26.03;15.00;;;9.40;75.70;;;;;;5038120;28;20913;-74
2021/10/29 02:42:25;;;;;;;33.40;16.13;;;9.40;74.60;;;;;;5037020;28;20180;-75
2021/10/29 02:44:51;;;;;;;28.87;15.73;;;9.30;75.60;;;;;;5036780;28;20157;-75
2021/10/29 02:47:17;;;;;;;35.90;16.57;;;9.30;76.80;;;;;;5035628;28;20429;-74
2021/10/29 02:49:42;;;;;;;28.23;16.00;;;9.40;75.20;;;;;;5033532;28;20305;-76
2021/10/29 02:52:08;;;;;;;30.50;15.27;;;9.40;74.10;;;;;;5032187;28;20176;-76
2021/10/29 02:54:34;;;;;;;33.63;15.80;;;9.40;74.20;;;;;;5033197;28;20560;-76
2021/10/29 02:56:59;;;;;;;33.50;15.77;;;9.50;72.60;;;;;;5032179;28;20703;-76
2021/10/29 02:59:25;;;;;;;30.43;16.40;;;9.50;73.20;;;;;;5033332;28;20200;-75
2021/10/29 03:01:50;;;;;;;28.90;14.70;;;9.50;72.50;;;;;;5033381;28;20255;-76
2021/10/29 03:04:16;;;;;;;33.23;15.50;;;9.40;73.60;;;;;;5033642;28;20514;-75
2021/10/29 03:06:42;;;;;;;33.97;15.00;;;9.40;73.00;;;;;;5032016;28;20176;-76
2021/10/29 03:09:08;;;;;;;33.63;16.03;;;9.40;74.40;;;;;;5033221;28;20628;-76
2021/10/29 03:11:34;;;;;;;29.07;15.77;;;9.40;72.90;;;;;;5032516;28;20438;-77
2021/10/29 03:14:00;;;;;;;29.80;15.53;;;9.50;72.60;;;;;;5025935;28;20273;-76
2021/10/29 03:16:25;;;;;;;34.83;15.50;;;9.50;72.20;;;;;;5032918;28;20175;-76
2021/10/29 03:18:51;;;;;;;29.83;15.00;;;9.50;71.70;;;;;;5031748;28;20238;-76
2021/10/29 03:21:16;;;;;;;38.90;16.20;;;9.60;70.50;;;;;;5033051;28;20191;-76
2021/10/29 03:23:43;;;;;;;35.93;16.70;;;9.60;70.60;;;;;;5032838;28;20176;-77
2021/10/29 03:26:08;;;;;;;48.43;15.63;;;9.60;71.10;;;;;;5032673;28;20175;-77
2021/10/29 03:28:35;;;;;;;31.23;15.13;;;9.50;71.00;;;;;;5032052;28;20473;-75
2021/10/29 03:31:00;;;;;;;36.13;17.90;;;9.50;72.60;;;;;;5047285;28;20574;-74
2021/10/29 03:33:26;;;;;;;33.30;16.37;;;9.50;72.30;;;;;;5039170;28;20463;-73
2021/10/29 03:35:52;;;;;;;28.40;14.60;;;9.50;72.50;;;;;;5032811;28;20172;-74
2021/10/29 03:40:56;;;;;;;63.27;18.50;;;9.50;71.80;;;;;;5031433;28;20454;-74
2021/10/29 03:43:26;;;;;;;33.87;15.30;;;9.40;72.50;;;;;;5032648;28;20485;-74
2021/10/29 03:46:10;;;;;;;32.47;15.80;;;9.50;73.80;;;;;;5032281;28;20446;-74
2021/10/29 03:53:56;;;;;;;32.20;14.10;;;9.60;70.70;;;;;;5044768;28;20218;-75
2021/10/29 03:56:24;;;;;;;33.43;15.17;;;9.60;69.60;;;;;;5045061;28;20490;-74
2021/10/29 03:58:52;;;;;;;34.57;15.60;;;9.60;69.70;;;;;;5044572;28;20517;-74
2021/10/29 04:01:18;;;;;;;36.73;16.03;;;9.70;67.90;;;;;;5045507;28;20425;-73
2021/10/29 04:03:45;;;;;;;28.83;14.60;;;9.70;68.30;;;;;;5043277;28;20419;-73
2021/10/29 04:06:10;;;;;;;32.47;15.27;;;9.70;67.40;;;;;;5044467;28;20426;-75
2021/10/29 04:08:36;;;;;;;36.07;17.00;;;9.70;67.30;;;;;;5041968;28;20426;-73
2021/10/29 04:11:02;;;;;;;31.77;14.70;;;9.70;67.50;;;;;;5043911;28;20255;-74
2021/10/29 04:13:33;;;;;;;28.40;14.60;;;9.80;67.50;;;;;;5036215;28;20199;-73
2021/10/29 04:15:59;;;;;;;31.97;15.23;;;9.80;66.00;;;;;;5044256;28;20659;-74
2021/10/29 04:18:26;;;;;;;36.63;15.07;;;9.80;66.40;;;;;;5043104;28;20421;-74
2021/10/29 04:20:53;;;;;;;34.37;15.30;;;9.70;67.50;;;;;;5037151;28;20505;-73
2021/10/29 04:23:18;;;;;;;31.53;15.40;;;9.70;68.70;;;;;;5032623;28;20419;-74
2021/10/29 04:25:44;;;;;;;29.03;14.97;;;9.80;66.90;;;;;;5034499;28;20496;-73
2021/10/29 04:28:12;;;;;;;32.53;14.30;;;9.70;66.30;;;;;;5033621;28;20218;-74
2021/10/29 04:30:43;;;;;;;28.07;14.37;;;9.80;66.70;;;;;;5060875;28;20198;-74
2021/10/29 04:33:09;;;;;;;26.17;14.90;;;9.70;66.30;;;;;;5032539;28;20459;-74
2021/10/29 04:35:35;;;;;;;28.93;15.30;;;9.80;66.00;;;;;;5019252;28;20781;-74
2021/10/29 04:38:04;;;;;;;27.27;14.20;;;9.80;64.90;;;;;;5033526;28;20885;-74
2021/10/29 04:40:29;;;;;;;33.30;14.80;;;9.80;64.30;;;;;;5033794;28;20470;-74
2021/10/29 04:42:55;;;;;;;34.63;16.07;;;9.80;64.40;;;;;;5033960;28;20945;-74
2021/10/29 04:45:21;;;;;;;33.87;16.40;;;9.90;63.90;;;;;;5033841;28;20175;-74
2021/10/29 04:47:46;;;;;;;32.87;15.77;;;9.80;64.40;;;;;;5033904;28;20650;-75
2021/10/29 04:50:12;;;;;;;41.43;16.47;;;9.80;64.90;;;;;;5032556;28;20695;-73
2021/10/29 04:52:37;;;;;;;27.90;15.20;;;9.80;65.20;;;;;;5033275;28;20259;-74
2021/10/29 04:55:04;;;;;;;29.50;14.70;;;9.80;65.50;;;;;;5033047;28;20256;-74
2021/10/29 04:57:30;;;;;;;32.07;14.37;;;9.80;64.50;;;;;;5032589;28;20175;-74
2021/10/29 04:59:57;;;;;;;30.40;13.93;;;9.90;63.50;;;;;;5033692;28;20497;-74
2021/10/29 05:02:23;;;;;;;29.10;15.63;;;9.90;62.50;;;;;;5040514;28;20570;-74
2021/10/29 05:04:49;;;;;;;28.27;14.47;;;10.00;62.30;;;;;;5039452;28;20415;-75
2021/10/29 05:07:14;;;;;;;32.10;14.77;;;10.00;59.80;;;;;;5043485;28;20207;-72
2021/10/29 05:09:40;;;;;;;33.60;16.33;;;10.10;60.90;;;;;;5038009;28;20661;-75
2021/10/29 05:12:06;;;;;;;27.13;14.37;;;10.10;58.80;;;;;;5033878;28;20239;-74
2021/10/29 05:14:31;;;;;;;24.17;12.53;;;10.10;59.40;;;;;;5038222;28;20814;-73
2021/10/29 05:16:57;;;;;;;24.77;13.67;;;10.10;59.10;;;;;;5041964;28;20177;-74
2021/10/29 05:19:22;;;;;;;32.20;14.13;;;10.20;58.50;;;;;;5041665;28;20236;-73
2021/10/29 05:21:48;;;;;;;28.17;13.40;;;10.20;58.70;;;;;;5040089;28;20167;-73
2021/10/29 05:24:15;;;;;;;28.90;13.97;;;10.10;58.00;;;;;;5040510;28;20179;-75
2021/10/29 05:26:41;;;;;;;26.93;15.07;;;10.10;57.50;;;;;;5033453;28;20171;-73
2021/10/29 05:29:06;;;;;;;25.50;13.30;;;10.20;58.50;;;;;;5038999;28;20495;-75
2021/10/29 05:31:32;;;;;;;27.63;14.10;;;10.10;58.70;;;;;;5041118;28;20594;-74
2021/10/29 05:33:58;;;;;;;24.67;14.40;;;10.10;58.90;;;;;;5036161;28;20299;-76
2021/10/29 05:36:24;;;;;;;32.27;14.23;;;10.10;59.60;;;;;;5033643;28;20601;-75
2021/10/29 05:38:49;;;;;;;24.50;13.63;;;10.10;58.50;;;;;;5035765;28;20232;-76
2021/10/29 05:41:15;;;;;;;26.90;13.50;;;10.20;59.10;;;;;;5036276;28;20412;-75
2021/10/29 05:43:40;;;;;;;24.63;13.67;;;10.10;58.70;;;;;;5036307;28;20284;-74
2021/10/29 05:46:06;;;;;;;26.23;14.00;;;10.10;58.60;;;;;;5034838;28;20177;-75
2021/10/29 05:48:32;;;;;;;29.20;14.50;;;10.10;58.70;;;;;;5035401;28;20185;-76
2021/10/29 05:51:00;;;;;;;37.43;15.70;;;10.00;59.00;;;;;;5034708;28;20752;-74
2021/10/29 05:55:54;;;;;;;32.30;14.80;;;10.00;59.20;;;;;;5033899;28;20445;-74
2021/10/29 05:58:20;;;;;;;27.00;14.33;;;10.10;58.50;;;;;;5033369;28;20432;-74
2021/10/29 06:00:45;;;;;;;22.80;14.83;;;10.00;59.10;;;;;;5031018;28;20279;-75
2021/10/29 06:03:12;;;;;;;26.83;14.00;;;10.10;59.00;;;;;;5034341;28;20668;-76
2021/10/29 06:05:38;;;;;;;35.23;15.00;;;10.10;57.80;;;;;;5034704;28;20173;-75
2021/10/29 06:08:04;;;;;;;32.67;14.10;;;10.10;58.00;;;;;;5026537;28;20485;-74
2021/10/29 06:10:30;;;;;;;24.67;13.53;;;10.10;58.20;;;;;;5034197;28;20542;-74
2021/10/29 06:12:56;;;;;;;32.00;13.00;;;10.10;58.20;;;;;;5033743;28;20460;-74
2021/10/29 06:15:22;;;;;;;33.73;14.03;;;10.10;57.80;;;;;;5033729;28;20481;-73
2021/10/29 06:17:47;;;;;;;31.37;14.10;;;10.10;58.10;;;;;;5034583;28;20203;-75
2021/10/29 06:20:14;;;;;;;28.37;13.50;;;10.00;59.00;;;;;;5033616;28;20493;-75
2021/10/29 06:22:44;;;;;;;25.30;13.80;;;10.00;59.70;;;;;;5034421;28;20177;-75
2021/10/29 06:25:14;;;;;;;28.70;15.67;;;10.00;59.40;;;;;;5025839;28;20431;-75
2021/10/29 06:30:25;;;;;;;25.77;13.80;;;9.90;59.60;;;;;;5034087;28;20446;-78
2021/10/29 06:32:51;;;;;;;26.50;13.07;;;9.90;59.90;;;;;;5034394;28;20458;-76
2021/10/29 06:35:16;;;;;;;25.57;13.37;;;9.90;60.30;;;;;;5034119;28;20240;-75
2021/10/29 06:37:42;;;;;;;25.80;13.57;;;9.90;60.40;;;;;;5033654;28;20419;-74
2021/10/29 06:40:11;;;;;;;24.37;13.57;;;9.90;60.70;;;;;;5035363;28;20196;-76
2021/10/29 06:42:37;;;;;;;34.00;15.37;;;9.90;60.00;;;;;;5039171;28;20191;-76
2021/10/29 06:47:43;;;;;;;26.60;15.53;;;9.90;59.90;;;;;;5025148;28;20190;-78
2021/10/29 07:00:40;;;;;;;22.30;13.30;;;10.00;59.10;;;;;;5042599;28;20437;-76
2021/10/29 07:41:06;;;;;;;30.90;12.73;;;10.50;53.40;;;;;;5034384;28;20436;-78
2021/10/29 07:43:52;;;;;;;24.57;12.90;;;10.50;53.30;;;;;;5025623;28;21075;-77
2021/10/29 07:46:18;;;;;;;25.80;12.50;;;10.60;53.60;;;;;;5034394;28;20750;-77
2021/10/29 07:48:44;;;;;;;23.40;12.50;;;10.60;52.70;;;;;;5035464;28;20456;-78
2021/10/29 07:51:10;;;;;;;24.77;12.30;;;10.70;52.10;;;;;;5034364;28;20637;-78
2021/10/29 07:53:36;;;;;;;22.60;12.30;;;10.80;51.50;;;;;;5032855;28;20831;-78
2021/10/29 07:56:04;;;;;;;30.30;12.23;;;10.90;50.90;;;;;;5032305;28;20488;-78
2021/10/29 07:58:31;;;;;;;39.40;13.20;;;11.00;49.70;;;;;;5034383;28;20177;-77
2021/10/29 08:00:57;;;;;;;28.43;11.30;;;11.10;48.60;;;;;;5032755;28;20478;-77
2021/10/29 08:03:23;;;;;;;21.67;12.17;;;11.30;48.80;;;;;;5033654;28;20426;-79
2021/10/29 08:05:49;;;;;;;23.40;12.47;;;11.40;46.80;;;;;;5034768;28;20436;-79
2021/10/29 08:08:19;;;;;;;24.87;13.40;;;11.40;46.20;;;;;;5034014;28;20538;-78
2021/10/29 08:10:46;;;;;;;22.53;11.83;;;11.50;46.70;;;;;;5029262;28;20210;-77
2021/10/29 08:13:12;;;;;;;23.33;11.27;;;11.50;45.60;;;;;;5027430;28;20973;-77
2021/10/29 08:15:39;;;;;;;20.13;11.63;;;11.60;46.00;;;;;;5035928;28;20419;-78
2021/10/29 08:18:06;;;;;;;19.37;11.50;;;11.60;45.10;;;;;;5035088;28;20517;-77
2021/10/29 08:20:36;;;;;;;19.10;11.37;;;11.70;44.80;;;;;;5034246;28;20461;-77
2021/10/29 08:23:03;;;;;;;28.17;11.67;;;11.70;44.70;;;;;;5033351;28;20941;-77
2021/10/29 08:25:29;;;;;;;31.13;12.27;;;11.70;45.10;;;;;;5028082;28;20420;-77
2021/10/29 08:27:56;;;;;;;21.43;11.03;;;11.70;44.80;;;;;;5014528;28;20473;-78
2021/10/29 08:30:23;;;;;;;27.33;11.97;;;11.70;44.90;;;;;;5040102;28;20972;-77
2021/10/29 08:32:49;;;;;;;22.60;11.80;;;11.70;44.30;;;;;;5038276;28;20430;-77
2021/10/29 08:35:17;;;;;;;23.03;11.93;;;11.70;45.30;;;;;;5036760;28;20419;-77
2021/10/29 08:37:43;;;;;;;27.13;13.20;;;11.70;45.20;;;;;;5035703;28;20418;-78
2021/10/29 08:40:10;;;;;;;26.40;12.27;;;11.70;45.20;;;;;;5035951;28;21012;-77
2021/10/29 08:42:36;;;;;;;17.73;10.83;;;11.60;45.30;;;;;;5034656;28;20414;-77
2021/10/29 08:45:06;;;;;;;26.37;14.13;;;11.70;45.70;;;;;;5033965;28;20406;-79
2021/10/29 08:47:33;;;;;;;27.33;11.27;;;11.80;44.60;;;;;;5036473;28;20412;-78
2021/10/29 08:50:00;;;;;;;21.13;11.50;;;11.80;44.20;;;;;;5036303;28;20799;-77
2021/10/29 08:52:26;;;;;;;24.20;12.43;;;11.90;44.20;;;;;;5031860;28;20930;-77
2021/10/29 08:54:54;;;;;;;22.67;11.63;;;12.10;43.40;;;;;;5033252;28;20548;-77
2021/10/29 08:57:21;;;;;;;21.20;11.43;;;12.40;42.20;;;;;;5038421;28;20893;-77
2021/10/29 08:59:50;;;;;;;22.90;11.40;;;12.40;41.60;;;;;;5034978;28;20943;-77
2021/10/29 09:02:22;;;;;;;32.73;12.80;;;12.40;41.50;;;;;;5021106;28;20433;-77
2021/10/29 09:04:56;;;;;;;19.20;11.10;;;12.40;41.20;;;;;;5040865;28;20413;-77
2021/10/29 09:07:53;;;;;;;18.83;11.47;;;12.40;41.80;;;;;;5038105;28;20571;-77
2021/10/29 09:35:30;;;;;;;19.90;10.53;;;13.20;38.60;;;;;;5041168;28;20432;-77
2021/10/29 09:38:14;;;;;;;18.40;11.07;;;13.40;38.40;;;;;;5039636;28;20486;-77
2021/10/29 09:41:03;;;;;;;24.73;13.43;;;13.50;37.90;;;;;;5044999;28;20619;-77
2021/10/29 09:43:33;;;;;;;16.30;9.57;;;13.60;37.70;;;;;;5041548;28;20483;-78
2021/10/29 09:46:01;;;;;;;17.13;9.90;;;13.60;37.50;;;;;;5041824;28;20493;-77
2021/10/29 09:48:37;;;;;;;18.83;10.77;;;13.60;37.60;;;;;;5042778;28;20441;-77
2021/10/29 09:51:08;;;;;;;21.17;11.90;;;13.60;37.60;;;;;;5038517;28;20426;-78
2021/10/29 09:58:45;;;;;;;18.43;10.27;;;13.90;36.80;;;;;;5036174;28;21018;-77
2021/10/29 10:01:11;;;;;;;25.70;10.23;;;14.00;36.60;;;;;;5034923;28;20514;-78
2021/10/29 10:03:39;;;;;;;26.20;10.53;;;14.00;36.50;;;;;;5037026;28;20410;-78
2021/10/29 10:06:05;;;;;;;15.57;9.60;;;14.00;36.40;;;;;;5036897;28;20420;-78
2021/10/29 10:08:33;;;;;;;24.00;10.93;;;14.00;36.60;;;;;;5051046;28;20628;-76
2021/10/29 10:11:00;;;;;;;20.07;10.40;;;14.10;36.40;;;;;;5055260;28;20488;-77
2021/10/29 10:13:27;;;;;;;20.50;9.37;;;14.10;36.20;;;;;;5036272;28;20508;-77
2021/10/29 10:15:56;;;;;;;16.40;9.63;;;14.10;35.70;;;;;;5037599;28;20411;-76
2021/10/29 10:18:23;;;;;;;15.90;9.67;;;14.20;35.50;;;;;;5038017;28;20490;-77
2021/10/29 10:20:51;;;;;;;16.97;9.10;;;14.30;35.50;;;;;;5034444;28;20496;-78
2021/10/29 10:23:20;;;;;;;14.73;8.97;;;14.30;35.00;;;;;;5033252;28;20459;-77
2021/10/29 10:40:14;;;;;;;15.53;9.00;;;14.80;33.80;;;;;;5048533;28;20903;-78
2021/10/29 10:45:12;;;;;;;16.83;8.90;;;15.30;31.80;;;;;;5038043;28;20465;-76
2021/10/29 10:47:43;;;;;;;15.20;8.90;;;15.30;31.60;;;;;;5036514;28;20479;-77
2021/10/29 10:50:25;;;;;;;23.53;9.37;;;15.30;31.30;;;;;;5035906;28;20580;-77
2021/10/29 10:56:04;;;;;;;12.57;8.30;;;15.30;31.70;;;;;;5035381;28;20577;-78
2021/10/29 10:58:53;;;;;;;15.87;8.77;;;15.30;31.70;;;;;;5033913;28;20447;-76
2021/10/29 11:02:21;;;;;;;16.80;8.90;;;15.40;31.20;;;;;;5030821;28;20403;-77
2021/10/29 11:10:20;;;;;;;16.23;8.43;;;15.60;31.10;;;;;;5032727;28;20543;-76
2021/10/29 11:12:46;;;;;;;14.57;8.90;;;15.70;30.60;;;;;;5024130;28;20405;-77
2021/10/29 11:15:18;;;;;;;14.83;7.13;;;15.80;30.50;;;;;;5036237;28;20784;-76
2021/10/29 11:17:54;;;;;;;10.07;7.17;;;15.90;30.20;;;;;;5036604;28;20447;-76
2021/10/29 11:20:46;;;;;;;10.83;7.40;;;16.00;30.20;;;;;;5037508;28;20453;-77
2021/10/29 11:23:25;;;;;;;12.27;8.17;;;16.00;29.80;;;;;;5044369;28;20485;-78
2021/10/29 11:26:04;;;;;;;13.23;8.33;;;16.10;30.10;;;;;;5045319;28;20437;-77
2021/10/29 11:28:36;;;;;;;14.83;7.83;;;16.30;29.30;;;;;;5039081;28;20402;-78
2021/10/29 11:31:05;;;;;;;11.70;7.80;;;16.30;29.40;;;;;;5043103;28;20444;-78
2021/10/29 11:33:31;;;;;;;10.70;6.43;;;16.30;29.50;;;;;;5044701;28;20516;-78
2021/10/29 11:35:58;;;;;;;25.67;7.20;;;16.30;29.30;;;;;;5044682;28;20422;-79
2021/10/29 11:38:25;;;;;;;11.37;6.70;;;16.20;29.40;;;;;;5041825;28;20414;-78
2021/10/29 11:40:52;;;;;;;14.37;7.40;;;16.20;29.30;;;;;;5050651;28;20460;-79
2021/10/29 11:43:27;;;;;;;10.50;6.27;;;16.20;29.80;;;;;;5047897;28;20429;-79
2021/10/29 11:45:54;;;;;;;7.00;5.70;;;16.30;29.10;;;;;;5044558;28;20619;-78
2021/10/29 11:48:20;;;;;;;6.90;5.23;;;16.30;28.70;;;;;;5048491;28;20477;-78
2021/10/29 11:50:46;;;;;;;13.23;6.60;;;16.40;28.40;;;;;;5049511;28;20458;-78
2021/10/29 11:53:13;;;;;;;9.07;5.43;;;16.50;28.30;;;;;;5045671;28;20195;-77
2021/10/29 11:55:45;;;;;;;10.20;5.40;;;16.60;27.70;;;;;;5039011;28;20489;-80
2021/10/29 11:58:23;;;;;;;7.93;5.43;;;16.70;27.20;;;;;;5047448;28;20482;-79
2021/10/29 12:01:10;;;;;;;12.57;5.20;;;16.90;27.10;;;;;;5046381;28;20442;-78
2021/10/29 12:09:41;;;;;;;6.10;5.00;;;17.20;26.00;;;;;;5048131;28;20532;-78
2021/10/29 12:12:17;;;;;;;6.90;4.17;;;17.40;25.70;;;;;;5032109;28;20437;-79
2021/10/29 12:14:45;;;;;;;15.17;6.50;;;17.50;25.30;;;;;;5040348;28;20465;-78
2021/10/29 12:17:17;;;;;;;7.23;5.10;;;17.70;24.90;;;;;;5042776;28;20491;-78
2021/10/29 12:19:45;;;;;;;8.67;5.40;;;17.90;25.50;;;;;;5047145;28;20577;-78
2021/10/29 12:24:54;;;;;;;12.40;4.87;;;17.90;24.00;;;;;;5039578;28;20491;-79
2021/10/29 12:27:30;;;;;;;7.67;5.23;;;17.90;24.20;;;;;;5041844;28;20430;-79
2021/10/29 12:30:10;;;;;;;15.40;5.17;;;18.00;24.40;;;;;;5043603;28;20450;-79
2021/10/29 12:38:21;;;;;;;17.80;6.07;;;18.00;23.70;;;;;;5033641;28;20175;-77
2021/10/29 13:02:54;;;;;;;18.97;4.97;;;17.80;23.70;;;;;;5033062;28;20477;-77
2021/10/29 13:05:20;;;;;;;6.93;4.77;;;17.80;23.90;;;;;;5033628;28;20413;-76
2021/10/29 13:07:46;;;;;;;8.50;4.50;;;17.80;23.90;;;;;;5033062;28;20445;-76
2021/10/29 13:10:12;;;;;;;12.40;4.37;;;17.80;24.30;;;;;;5029768;28;20445;-76
2021/10/29 13:12:45;;;;;;;9.83;4.17;;;17.90;24.40;;;;;;5035090;28;20417;-77
2021/10/29 13:15:14;;;;;;;6.67;4.17;;;17.90;24.10;;;;;;5033634;28;20179;-77
2021/10/29 13:17:44;;;;;;;7.50;4.43;;;18.00;23.80;;;;;;5034335;28;20418;-77
2021/10/29 13:51:50;;;;;;;10.00;6.67;;;19.20;21.00;;;;;;5034194;28;20449;-75
2021/10/29 14:29:19;;;;;;;7.23;4.27;;;19.90;19.60;;;;;;5044495;28;20449;-77
2021/10/29 14:34:17;;;;;;;6.13;4.27;;;19.70;20.20;;;;;;5023937;28;20972;-76
2021/10/29 14:39:17;;;;;;;23.57;5.73;;;19.00;21.90;;;;;;5030277;28;20487;-76
2021/10/29 14:41:58;;;;;;;10.00;4.43;;;18.70;22.50;;;;;;5031014;28;20426;-76
2021/10/29 14:44:33;;;;;;;4.57;4.10;;;18.60;22.90;;;;;;5034033;28;20461;-77
2021/10/29 14:47:09;;;;;;;6.20;4.47;;;18.50;23.10;;;;;;5040402;28;20496;-79
2021/10/29 15:03:26;;;;;;;10.10;4.47;;;19.50;21.30;;;;;;5032586;28;20495;-77
2021/10/29 15:43:22;;;;;;;6.97;4.50;;;16.50;29.20;;;;;;5025483;28;20437;-77
2021/10/29 15:45:50;;;;;;;12.60;5.80;;;16.30;29.70;;;;;;5031281;28;20413;-76
2021/10/29 15:48:19;;;;;;;12.70;5.50;;;16.20;30.10;;;;;;5032009;28;20436;-77
2021/10/29 15:50:45;;;;;;;16.03;6.00;;;16.10;30.30;;;;;;5033422;28;20430;-79
2021/10/29 15:53:12;;;;;;;12.63;5.17;;;16.00;31.00;;;;;;5025827;28;20473;-77
2021/10/29 15:58:47;;;;;;;14.80;4.90;;;15.90;31.20;;;;;;5031902;28;20563;-77
2021/10/29 16:01:23;;;;;;;8.83;4.90;;;15.90;31.40;;;;;;5032621;28;20419;-77
2021/10/29 16:17:14;;;;;;;6.07;4.97;;;15.30;33.60;;;;;;5037178;28;20428;-76
2021/10/29 16:19:43;;;;;;;10.07;5.37;;;15.30;33.70;;;;;;5032262;28;20475;-77
2021/10/29 16:22:17;;;;;;;8.80;4.93;;;15.30;33.50;;;;;;5031460;28;20783;-77
2021/10/29 16:24:50;;;;;;;10.33;4.90;;;15.30;33.40;;;;;;5034038;28;20407;-78
2021/10/29 16:27:16;;;;;;;16.90;5.20;;;15.20;33.70;;;;;;5034230;28;21000;-78
2021/10/29 16:29:43;;;;;;;6.83;4.77;;;15.20;33.70;;;;;;5037759;28;20444;-77
2021/10/29 16:32:24;;;;;;;7.50;4.83;;;15.20;33.70;;;;;;5048244;28;20849;-77
2021/10/29 16:34:49;;;;;;;9.43;5.00;;;15.10;34.10;;;;;;5033128;28;20467;-77
2021/10/29 16:37:15;;;;;;;9.00;4.57;;;15.00;34.40;;;;;;5040213;28;20422;-76
2021/10/29 16:39:41;;;;;;;10.60;5.40;;;15.00;34.30;;;;;;5038892;28;20202;-76
2021/10/29 16:42:06;;;;;;;5.40;4.57;;;15.00;34.70;;;;;;5036258;28;20187;-76
2021/10/29 16:44:32;;;;;;;10.23;5.10;;;14.90;34.90;;;;;;5033078;28;20183;-76
2021/10/29 16:46:57;;;;;;;9.57;4.40;;;14.90;34.90;;;;;;5032530;28;20213;-77
2021/10/29 16:49:23;;;;;;;9.07;4.80;;;15.00;35.00;;;;;;5032711;28;20488;-76
2021/10/29 16:51:49;;;;;;;14.23;8.70;;;15.10;34.40;;;;;;5033860;28;20191;-76
2021/10/29 16:54:15;;;;;;;6.80;4.53;;;15.20;34.00;;;;;;5041691;28;20447;-76
2021/10/29 16:56:40;;;;;;;8.43;4.40;;;15.30;33.70;;;;;;5038731;28;20289;-76
2021/10/29 16:59:06;;;;;;;7.23;4.37;;;15.40;33.20;;;;;;5037289;28;20520;-77
2021/10/29 17:01:33;;;;;;;6.73;4.90;;;15.50;33.70;;;;;;5027729;28;20653;-76
2021/10/29 17:03:59;;;;;;;7.27;5.13;;;15.50;33.40;;;;;;5031909;28;20626;-78
2021/10/29 17:06:25;;;;;;;11.63;4.90;;;15.40;33.20;;;;;;5045615;28;20516;-77
2021/10/29 17:08:50;;;;;;;15.87;5.30;;;15.40;33.40;;;;;;5031470;28;20235;-77
2021/10/29 17:11:16;;;;;;;15.83;4.90;;;15.30;33.50;;;;;;5032432;28;20176;-76
2021/10/29 17:13:42;;;;;;;8.07;4.97;;;15.40;33.30;;;;;;5033335;28;20207;-76
2021/10/29 17:16:08;;;;;;;6.73;4.90;;;15.30;33.50;;;;;;5026337;28;20186;-77
2021/10/29 17:18:33;;;;;;;10.63;5.43;;;15.40;33.60;;;;;;5035187;28;20781;-76
2021/10/29 17:21:03;;;;;;;8.27;5.60;;;15.30;33.40;;;;;;5037444;28;20899;-77
2021/10/29 17:23:28;;;;;;;6.93;4.93;;;15.30;33.60;;;;;;5035525;28;20179;-78
2021/10/29 17:25:54;;;;;;;7.07;5.43;;;15.30;33.70;;;;;;5036952;28;20440;-76
2021/10/29 17:28:19;;;;;;;8.83;5.17;;;15.40;33.00;;;;;;5038090;28;20209;-77
2021/10/29 17:30:45;;;;;;;19.00;4.90;;;15.40;32.80;;;;;;5034291;28;20629;-76
2021/10/29 17:33:10;;;;;;;12.73;6.30;;;15.50;33.40;;;;;;5029643;28;20282;-79
2021/10/29 17:35:36;;;;;;;8.30;6.07;;;15.50;33.10;;;;;;5055299;28;20202;-77